Time;durP1;ratioP1;P1;durP2;ratioP2;P2;SDS_P1;SDS_P2;PMS_P1;PMS_P2;Temp;Humidity;BMP_temperature;BMP_pressure;BME280_temperature;BME280_humidity;BME280_pressure;Samples;Min_cycle;Max_cycle;Signal;HPM_P1;HPM_P2
2022/10/01 00:02:19;;;;;;;9.77;7.22;;;;;;;10.06;100.00;100135.47;5268879;28;20479;-70
2022/10/01 00:04:50;;;;;;;9.30;6.90;;;;;;;10.06;100.00;100132.78;5273249;28;20024;-71
2022/10/01 00:07:21;;;;;;;9.25;6.97;;;;;;;10.08;100.00;100106.84;5263333;28;20025;-72
2022/10/01 00:09:53;;;;;;;9.07;7.20;;;;;;;10.06;100.00;100119.47;5266952;28;20359;-71
2022/10/01 00:12:24;;;;;;;8.93;6.72;;;;;;;10.05;100.00;100123.97;5264406;28;20032;-70
2022/10/01 00:14:55;;;;;;;10.23;7.50;;;;;;;10.05;100.00;100107.09;5271809;28;20652;-70
2022/10/01 00:17:26;;;;;;;9.70;7.57;;;;;;;10.02;100.00;100095.72;5262878;28;21722;-70
2022/10/01 00:19:58;;;;;;;9.40;7.43;;;;;;;10.03;100.00;100080.59;5264835;28;20151;-70
2022/10/01 00:22:31;;;;;;;11.23;7.70;;;;;;;10.02;100.00;100084.22;5265455;28;20508;-69
2022/10/01 00:25:04;;;;;;;9.20;7.97;;;;;;;10.02;100.00;100082.41;5261293;28;20028;-70
2022/10/01 00:27:35;;;;;;;11.38;7.93;;;;;;;10.03;100.00;100077.94;5264559;28;20017;-70
2022/10/01 00:30:07;;;;;;;8.82;7.03;;;;;;;10.01;100.00;100072.75;5265954;28;20036;-69
2022/10/01 00:32:40;;;;;;;9.55;7.32;;;;;;;10.01;100.00;100072.75;5269987;28;20025;-70
2022/10/01 00:35:12;;;;;;;10.45;7.45;;;;;;;10.02;100.00;100065.59;5276083;28;20403;-70
2022/10/01 00:37:46;;;;;;;9.13;7.47;;;;;;;10.02;100.00;100039.75;5272194;28;20027;-70
2022/10/01 00:40:20;;;;;;;10.45;7.10;;;;;;;10.02;100.00;100037.09;5260674;28;20032;-69
2022/10/01 00:42:51;;;;;;;10.25;7.90;;;;;;;10.01;100.00;100056.75;5258373;28;20081;-70
2022/10/01 00:45:22;;;;;;;12.18;7.95;;;;;;;10.04;100.00;100076.94;5255625;28;20282;-70
2022/10/01 00:47:58;;;;;;;11.65;7.88;;;;;;;10.03;100.00;100075.28;5264190;28;20135;-70
2022/10/01 00:50:32;;;;;;;10.45;7.28;;;;;;;10.04;100.00;100076.94;5273597;28;20021;-70
2022/10/01 00:53:07;;;;;;;9.77;7.57;;;;;;;10.03;100.00;100075.28;5278256;28;20115;-71
2022/10/01 00:55:45;;;;;;;9.60;7.25;;;;;;;10.06;100.00;100092.81;5269361;28;20047;-70
2022/10/01 00:58:18;;;;;;;11.45;6.82;;;;;;;10.09;100.00;100079.22;5254797;28;20063;-71
2022/10/01 01:00:51;;;;;;;9.75;7.30;;;;;;;10.09;100.00;100072.06;5260552;28;20766;-70
2022/10/01 01:03:23;;;;;;;9.50;7.07;;;;;;;10.10;100.00;100072.91;5257621;28;20067;-69
2022/10/01 01:05:55;;;;;;;8.30;6.95;;;;;;;10.10;100.00;100075.56;5271387;28;20108;-70
2022/10/01 01:08:28;;;;;;;10.75;7.70;;;;;;;10.09;100.00;100089.91;5269516;28;20036;-70
2022/10/01 01:11:11;;;;;;;11.00;7.20;;;;;;;10.08;100.00;100081.03;5273214;28;20027;-70
2022/10/01 01:13:59;;;;;;;8.63;6.95;;;;;;;10.09;100.00;100042.75;5274096;28;20034;-69
2022/10/01 01:16:48;;;;;;;10.10;7.10;;;;;;;10.09;100.00;100039.25;5265890;28;20171;-69
2022/10/01 01:19:33;;;;;;;7.63;6.70;;;;;;;10.06;100.00;100035.00;5252182;28;20035;-69
2022/10/01 01:22:07;;;;;;;8.48;6.30;;;;;;;10.05;100.00;100027.16;5256329;28;20378;-69
2022/10/01 01:24:55;;;;;;;10.25;6.82;;;;;;;10.05;100.00;99988.03;5274779;28;20023;-69
2022/10/01 01:27:39;;;;;;;8.18;6.18;;;;;;;10.02;100.00;99948.31;5258987;28;20252;-68
2022/10/01 01:30:14;;;;;;;6.68;5.40;;;;;;;10.02;100.00;99938.50;5259004;28;20393;-70
2022/10/01 01:33:02;;;;;;;7.82;5.20;;;;;;;10.02;100.00;99914.50;5259076;28;20486;-69
2022/10/01 01:35:45;;;;;;;7.32;5.80;;;;;;;9.97;100.00;99890.13;5264946;28;20032;-69
2022/10/01 01:38:23;;;;;;;8.05;5.43;;;;;;;9.98;100.00;99878.47;5257378;28;20479;-68
2022/10/01 01:40:59;;;;;;;9.50;5.90;;;;;;;9.97;100.00;99854.59;5256838;28;20029;-69
2022/10/01 01:43:35;;;;;;;6.57;4.93;;;;;;;9.95;100.00;99926.72;5260606;28;20377;-70
2022/10/01 01:46:10;;;;;;;7.10;5.53;;;;;;;9.95;100.00;99961.34;5253450;28;20106;-70
2022/10/01 01:48:46;;;;;;;7.68;5.32;;;;;;;9.98;100.00;99958.41;5262353;28;20063;-69
2022/10/01 01:51:31;;;;;;;6.57;5.35;;;;;;;9.96;100.00;99952.38;5256741;28;20575;-70
2022/10/01 01:54:02;;;;;;;7.75;5.72;;;;;;;9.96;100.00;99940.88;5255190;28;20060;-69
2022/10/01 01:56:34;;;;;;;6.50;5.22;;;;;;;9.94;100.00;99949.00;5262517;28;20029;-70
2022/10/01 01:59:07;;;;;;;6.50;5.18;;;;;;;9.94;100.00;99946.34;5250684;28;20027;-69
2022/10/01 02:01:41;;;;;;;7.15;5.53;;;;;;;9.94;100.00;99946.34;5251917;28;20032;-69
2022/10/01 02:04:34;;;;;;;7.95;5.50;;;;;;;9.95;100.00;99952.50;5263809;28;20057;-70
2022/10/01 02:07:56;;;;;;;8.77;5.80;;;;;;;9.94;100.00;99945.50;5269099;28;20036;-70
2022/10/01 02:10:56;;;;;;;7.35;5.30;;;;;;;9.92;100.00;99948.28;5220542;28;20072;-70
2022/10/01 02:13:52;;;;;;;6.78;4.45;;;;;;;9.91;100.00;99943.94;5272972;28;20065;-70
2022/10/01 02:16:31;;;;;;;5.63;4.57;;;;;;;9.94;100.00;99941.00;5255730;28;20044;-69
2022/10/01 02:19:15;;;;;;;7.03;4.55;;;;;;;9.92;100.00;99942.13;5252683;28;20083;-69
2022/10/01 02:22:00;;;;;;;6.30;4.35;;;;;;;9.97;100.00;99947.88;5267313;28;20029;-69
2022/10/01 02:24:50;;;;;;;6.20;4.25;;;;;;;9.92;100.00;99947.47;5255349;28;20027;-69
2022/10/01 02:27:37;;;;;;;5.95;4.15;;;;;;;9.92;100.00;99936.78;5252000;28;20021;-69
2022/10/01 02:30:09;;;;;;;5.20;3.63;;;;;;;9.92;100.00;99932.31;5251533;28;20051;-69
2022/10/01 02:32:45;;;;;;;5.63;4.13;;;;;;;9.92;100.00;99920.81;5250416;28;20632;-69
2022/10/01 02:35:18;;;;;;;4.78;3.40;;;;;;;9.95;100.00;99912.53;5264448;28;20107;-69
2022/10/01 02:37:52;;;;;;;4.47;2.90;;;;;;;9.94;100.00;99914.34;5262619;28;20129;-69
2022/10/01 02:40:27;;;;;;;5.65;3.60;;;;;;;9.95;100.00;99908.06;5254687;28;20033;-69
2022/10/01 02:43:05;;;;;;;6.28;3.45;;;;;;;9.97;100.00;99913.22;5251398;28;20048;-69
2022/10/01 02:45:39;;;;;;;5.57;3.70;;;;;;;9.99;100.00;99913.94;5256414;28;20119;-69
2022/10/01 02:48:16;;;;;;;4.50;3.67;;;;;;;9.97;100.00;99914.09;5258377;28;20032;-69
2022/10/01 02:50:51;;;;;;;5.30;3.90;;;;;;;9.97;100.00;99916.75;5252988;28;20039;-69
2022/10/01 02:53:39;;;;;;;6.88;3.83;;;;;;;10.00;100.00;99913.81;5234144;28;20048;-69
2022/10/01 02:56:13;;;;;;;6.25;3.80;;;;;;;10.00;100.00;99903.16;5252201;28;20128;-68
2022/10/01 02:58:45;;;;;;;5.13;3.88;;;;;;;10.01;100.00;99904.84;5254688;28;20565;-69
2022/10/01 03:01:16;;;;;;;5.30;3.45;;;;;;;10.02;100.00;99898.50;5254294;28;20366;-69
2022/10/01 03:03:47;;;;;;;4.45;3.22;;;;;;;10.02;100.00;99898.50;5254909;28;20024;-69
2022/10/01 03:06:18;;;;;;;6.10;3.60;;;;;;;10.06;100.00;99908.91;5265744;28;20498;-69
2022/10/01 03:08:50;;;;;;;5.35;3.70;;;;;;;10.05;100.00;99893.88;5264445;28;20541;-69
2022/10/01 03:11:21;;;;;;;4.80;3.47;;;;;;;10.06;100.00;99901.75;5259889;28;21618;-69
2022/10/01 03:13:52;;;;;;;6.40;3.17;;;;;;;10.10;100.00;99908.50;5249576;28;20028;-68
2022/10/01 03:16:24;;;;;;;5.18;3.17;;;;;;;10.11;100.00;99906.69;5256301;28;20075;-69
2022/10/01 03:18:55;;;;;;;4.65;3.15;;;;;;;10.11;100.00;99901.34;5248980;28;20037;-70
2022/10/01 03:21:26;;;;;;;4.03;2.97;;;;;;;10.11;100.00;99898.69;5250728;28;20068;-69
2022/10/01 03:23:58;;;;;;;3.50;3.00;;;;;;;10.12;100.00;99893.19;5256385;28;20086;-69
2022/10/01 03:26:29;;;;;;;4.40;2.90;;;;;;;10.13;100.00;99881.56;5257144;28;20025;-69
2022/10/01 03:29:01;;;;;;;4.13;3.10;;;;;;;10.15;100.00;99898.25;5250264;28;20037;-69
2022/10/01 03:31:32;;;;;;;4.22;2.70;;;;;;;10.17;100.00;99903.47;5251556;28;20036;-68
2022/10/01 03:34:03;;;;;;;3.80;2.30;;;;;;;10.16;100.00;99891.97;5250541;28;20042;-69
2022/10/01 03:36:34;;;;;;;3.72;2.53;;;;;;;10.19;100.00;99893.50;5268677;28;20089;-69
2022/10/01 03:39:06;;;;;;;4.95;2.25;;;;;;;10.19;100.00;99902.34;5262201;28;20649;-69
2022/10/01 03:41:37;;;;;;;3.30;1.92;;;;;;;10.21;100.00;99896.88;5251335;28;20090;-69
2022/10/01 03:44:09;;;;;;;4.88;2.25;;;;;;;10.22;100.00;99901.25;5279597;28;20071;-69
2022/10/01 03:46:40;;;;;;;2.80;1.70;;;;;;;10.24;100.00;99901.06;5257146;28;20262;-69
2022/10/01 03:49:12;;;;;;;3.78;1.98;;;;;;;10.28;100.00;99900.69;5255060;28;20027;-69
2022/10/01 03:51:44;;;;;;;3.40;1.73;;;;;;;10.31;100.00;99900.41;5261553;28;20048;-69
2022/10/01 03:54:15;;;;;;;3.13;1.75;;;;;;;10.29;100.00;99902.34;5262007;28;20036;-70
2022/10/01 03:56:47;;;;;;;2.63;1.55;;;;;;;10.34;100.00;99896.66;5274467;28;20535;-69
2022/10/01 03:59:19;;;;;;;2.63;1.52;;;;;;;10.35;100.00;99899.16;5269604;28;20464;-69
2022/10/01 04:01:50;;;;;;;2.47;1.52;;;;;;;10.35;100.00;99892.97;5256071;28;20031;-69
2022/10/01 04:04:21;;;;;;;2.53;1.30;;;;;;;10.36;100.00;99903.50;5259473;28;20489;-69
2022/10/01 04:06:52;;;;;;;3.00;1.23;;;;;;;10.38;100.00;99903.38;5269784;28;20111;-69
2022/10/01 04:09:24;;;;;;;2.13;1.23;;;;;;;10.40;100.00;99912.09;5265352;28;20093;-69
2022/10/01 04:11:55;;;;;;;2.17;1.20;;;;;;;10.45;100.00;99915.19;5259322;28;20032;-69
2022/10/01 04:14:27;;;;;;;2.03;1.13;;;;;;;10.46;100.00;99913.34;5252069;28;20032;-69
2022/10/01 04:16:59;;;;;;;3.83;1.75;;;;;;;10.49;100.00;99921.06;5259759;28;20639;-69
2022/10/01 04:19:30;;;;;;;2.03;1.10;;;;;;;10.51;100.00;99916.44;5256451;28;20155;-69
2022/10/01 04:22:01;;;;;;;1.88;0.98;;;;;;;10.51;100.00;99927.13;5255324;28;20466;-69
2022/10/01 04:24:33;;;;;;;2.20;1.10;;;;;;;10.53;100.00;99914.47;5256587;28;20111;-69
2022/10/01 04:27:04;;;;;;;2.20;1.20;;;;;;;10.54;100.00;99925.00;5257450;28;20067;-69
2022/10/01 04:29:35;;;;;;;2.70;1.30;;;;;;;10.56;100.00;99928.34;5256621;28;20830;-69
2022/10/01 04:32:06;;;;;;;2.63;1.20;;;;;;;10.58;100.00;99933.56;5255923;28;20457;-68
2022/10/01 04:34:53;;;;;;;2.72;1.40;;;;;;;10.58;100.00;99922.88;5253768;28;20550;-69
2022/10/01 04:37:26;;;;;;;2.90;1.35;;;;;;;10.69;100.00;99925.41;5275402;28;20084;-69
2022/10/01 04:39:57;;;;;;;2.53;1.48;;;;;;;10.67;100.00;99929.22;5280823;28;20031;-68
2022/10/01 04:42:28;;;;;;;2.75;1.58;;;;;;;10.66;100.00;99939.06;5265052;28;20045;-68
2022/10/01 04:45:00;;;;;;;3.00;1.85;;;;;;;10.68;100.00;99930.88;5264642;28;20020;-69
2022/10/01 04:47:31;;;;;;;2.70;1.70;;;;;;;10.76;100.00;99942.56;5259462;28;20025;-69
2022/10/01 04:50:03;;;;;;;3.40;2.15;;;;;;;10.74;100.00;99933.03;5262870;28;20094;-69
2022/10/01 04:52:34;;;;;;;3.80;2.20;;;;;;;10.74;100.00;99935.69;5272613;28;20079;-69
2022/10/01 04:55:05;;;;;;;3.45;2.40;;;;;;;10.75;100.00;99932.84;5264108;28;20029;-69
2022/10/01 04:57:40;;;;;;;3.78;1.90;;;;;;;10.83;100.00;99941.97;5265551;28;20040;-69
2022/10/01 05:00:14;;;;;;;3.83;2.58;;;;;;;10.79;100.00;99942.25;5262060;28;20029;-69
2022/10/01 05:02:48;;;;;;;7.10;2.90;;;;;;;10.79;100.00;99942.25;5240958;28;20036;-69
2022/10/01 05:05:21;;;;;;;4.63;2.75;;;;;;;10.81;100.00;99952.78;5269657;28;20034;-69
2022/10/01 05:07:52;;;;;;;5.03;3.13;;;;;;;10.83;100.00;99953.50;5268507;28;20870;-69
2022/10/01 05:10:23;;;;;;;4.50;3.17;;;;;;;10.84;100.00;99949.84;5273706;28;20028;-69
2022/10/01 05:12:55;;;;;;;4.95;3.20;;;;;;;10.86;100.00;99958.56;5271994;28;20028;-69
2022/10/01 05:15:27;;;;;;;5.40;3.88;;;;;;;10.88;100.00;99953.91;5275086;28;20116;-69
2022/10/01 05:17:59;;;;;;;5.85;3.22;;;;;;;10.91;100.00;99966.13;5280698;28;20421;-69
2022/10/01 05:20:30;;;;;;;4.90;3.78;;;;;;;10.94;100.00;99968.53;5265136;28;20025;-69
2022/10/01 05:23:01;;;;;;;6.05;4.45;;;;;;;10.94;100.00;99971.19;5268537;28;20804;-69
2022/10/01 05:25:32;;;;;;;6.35;4.18;;;;;;;10.96;100.00;99983.41;5247404;28;20543;-69
2022/10/01 05:28:04;;;;;;;7.07;4.22;;;;;;;10.97;100.00;99984.28;5270205;28;20040;-69
2022/10/01 05:30:35;;;;;;;7.20;4.47;;;;;;;10.99;100.00;99984.97;5262997;28;20028;-69
2022/10/01 05:33:07;;;;;;;7.57;4.80;;;;;;;11.11;100.00;99999.00;5249417;28;20028;-69
2022/10/01 05:35:39;;;;;;;5.07;4.53;;;;;;;11.08;100.00;100002.78;5263250;28;20113;-69
2022/10/01 05:38:11;;;;;;;7.53;5.13;;;;;;;11.04;100.00;99992.53;5245856;28;20024;-68
2022/10/01 05:40:45;;;;;;;6.68;5.40;;;;;;;11.08;100.00;100000.13;5266014;28;20610;-69
2022/10/01 05:43:17;;;;;;;7.03;5.82;;;;;;;11.08;100.00;99999.28;5263333;28;20060;-69
2022/10/01 05:45:49;;;;;;;6.55;5.63;;;;;;;11.09;100.00;99995.63;5262026;28;20039;-69
2022/10/01 05:48:21;;;;;;;7.88;6.00;;;;;;;11.14;100.00;99996.91;5261543;28;20173;-69
2022/10/01 05:50:53;;;;;;;9.38;5.93;;;;;;;11.12;100.00;99998.00;5261568;28;20353;-69
2022/10/01 05:53:24;;;;;;;9.48;6.03;;;;;;;11.15;100.00;100008.41;5260099;28;20091;-69
2022/10/01 05:55:59;;;;;;;9.60;6.68;;;;;;;11.15;100.00;100017.25;5261980;28;20021;-69
2022/10/01 05:58:31;;;;;;;9.18;6.13;;;;;;;11.18;100.00;100019.66;5262803;28;20489;-69
2022/10/01 06:01:03;;;;;;;7.35;6.30;;;;;;;11.24;100.00;100020.06;5259133;28;20060;-69
2022/10/01 06:03:35;;;;;;;8.93;6.43;;;;;;;11.17;100.00;100015.28;5266706;28;20032;-69
2022/10/01 06:06:06;;;;;;;8.45;7.00;;;;;;;11.18;100.00;100011.66;5262905;28;20024;-69
2022/10/01 06:08:37;;;;;;;9.68;6.32;;;;;;;11.17;100.00;100017.97;5261773;28;20024;-69
2022/10/01 06:11:08;;;;;;;7.88;7.03;;;;;;;11.17;100.00;100019.78;5260675;28;20062;-69
2022/10/01 06:13:44;;;;;;;7.80;6.65;;;;;;;11.15;100.00;100021.75;5262310;28;20028;-69
2022/10/01 06:16:16;;;;;;;8.85;6.80;;;;;;;11.12;100.00;100014.88;5258529;28;20292;-69
2022/10/01 06:18:48;;;;;;;10.50;6.63;;;;;;;11.12;100.00;100022.91;5264033;28;20032;-69
2022/10/01 06:21:20;;;;;;;10.27;7.03;;;;;;;11.11;100.00;100029.22;5258769;28;20025;-69
2022/10/01 06:23:52;;;;;;;8.07;6.40;;;;;;;11.13;100.00;100031.75;5262359;28;20044;-69
2022/10/01 06:26:23;;;;;;;10.98;7.90;;;;;;;11.21;100.00;100031.88;5263834;28;21107;-69
2022/10/01 06:28:55;;;;;;;11.68;9.35;;;;;;;11.25;100.00;100035.94;5258957;28;20152;-69
2022/10/01 06:31:26;;;;;;;10.57;8.68;;;;;;;11.21;100.00;100039.06;5262497;28;20037;-69
2022/10/01 06:33:57;;;;;;;11.20;8.35;;;;;;;11.28;100.00;100032.16;5261477;28;20155;-69
2022/10/01 06:36:29;;;;;;;12.73;9.18;;;;;;;11.24;100.00;100036.94;5264246;28;20039;-69
2022/10/01 06:39:00;;;;;;;12.75;8.95;;;;;;;11.27;100.00;100038.47;5261197;28;20302;-69
2022/10/01 06:41:33;;;;;;;12.30;9.43;;;;;;;11.28;100.00;100046.34;5271075;28;20109;-69
2022/10/01 06:44:04;;;;;;;13.75;9.75;;;;;;;11.30;100.00;100043.53;5255978;28;20028;-69
2022/10/01 06:46:35;;;;;;;14.63;10.65;;;;;;;11.35;100.00;100049.28;5258709;28;20020;-69
2022/10/01 06:49:07;;;;;;;14.20;11.07;;;;;;;11.43;100.00;100052.09;5261400;28;20031;-69
2022/10/01 06:54:28;;;;;;;15.63;11.35;;;;;;;11.46;100.00;100067.84;5259961;28;20470;-69
2022/10/01 06:56:59;;;;;;;15.10;10.60;;;;;;;11.54;100.00;100054.63;5260224;28;20032;-69
2022/10/01 06:59:30;;;;;;;14.68;10.40;;;;;;;11.67;100.00;100059.63;5259644;28;20107;-69
2022/10/01 07:02:03;;;;;;;13.95;10.82;;;;;;;11.65;100.00;100058.13;5260021;28;20032;-67
2022/10/01 07:04:34;;;;;;;13.25;10.63;;;;;;;11.62;100.00;100055.72;5267697;28;20075;-69
2022/10/01 07:07:06;;;;;;;15.85;10.48;;;;;;;11.65;100.00;100060.78;5282620;28;20470;-69
2022/10/01 07:09:37;;;;;;;15.40;11.10;;;;;;;11.67;100.00;100070.34;5267525;28;20545;-69
2022/10/01 07:12:09;;;;;;;16.75;10.63;;;;;;;11.74;100.00;100082.13;5282465;28;20036;-69
2022/10/01 07:14:40;;;;;;;14.48;10.70;;;;;;;11.75;100.00;100067.81;5267703;28;20115;-69
2022/10/01 07:17:11;;;;;;;15.45;11.00;;;;;;;11.85;100.00;100070.44;5279470;28;20032;-69
2022/10/01 07:19:42;;;;;;;15.77;11.48;;;;;;;11.83;100.00;100075.09;5264778;28;20483;-69
2022/10/01 07:22:14;;;;;;;16.70;11.90;;;;;;;11.94;100.00;100074.94;5261898;28;20028;-69
2022/10/01 07:24:45;;;;;;;18.20;12.38;;;;;;;12.03;100.00;100081.25;5261939;28;20349;-68
2022/10/01 07:27:17;;;;;;;15.85;11.95;;;;;;;12.20;100.00;100079.66;5280023;28;20024;-67
2022/10/01 07:29:49;;;;;;;17.42;13.27;;;;;;;12.15;100.00;100079.25;5275923;28;20024;-69
2022/10/01 07:32:20;;;;;;;17.95;12.82;;;;;;;12.19;100.00;100088.66;5271784;28;20843;-69
2022/10/01 07:34:51;;;;;;;18.65;12.52;;;;;;;12.20;100.00;100098.38;5274925;28;20029;-69
2022/10/01 07:37:23;;;;;;;18.52;13.13;;;;;;;12.25;100.00;100104.09;5282342;28;20489;-69
2022/10/01 07:39:54;;;;;;;19.23;11.77;;;;;;;12.25;100.00;100112.13;5281569;28;20134;-69
2022/10/01 07:42:26;;;;;;;19.33;11.80;;;;;;;12.25;100.00;100119.31;5264308;28;20478;-68
2022/10/01 07:44:57;;;;;;;16.38;11.45;;;;;;;12.24;100.00;100123.84;5258322;28;21241;-68
2022/10/01 07:47:28;;;;;;;16.65;12.38;;;;;;;12.26;100.00;100129.03;5277101;28;20475;-69
2022/10/01 07:50:00;;;;;;;18.02;11.98;;;;;;;12.30;100.00;100130.44;5286751;28;20024;-69
2022/10/01 07:52:31;;;;;;;17.33;12.23;;;;;;;12.30;100.00;100133.94;5280395;28;20133;-68
2022/10/01 07:55:04;;;;;;;21.48;12.18;;;;;;;12.29;100.00;100136.75;5274482;28;20033;-68
2022/10/01 07:57:35;;;;;;;16.95;12.35;;;;;;;12.30;100.00;100147.31;5281456;28;20024;-69
2022/10/01 08:00:07;;;;;;;20.52;12.35;;;;;;;12.31;100.00;100151.69;5287529;28;20534;-69
2022/10/01 08:02:38;;;;;;;17.52;12.15;;;;;;;12.29;100.00;100153.66;5274016;28;20400;-69
2022/10/01 08:05:19;;;;;;;21.05;12.25;;;;;;;12.31;100.00;100159.72;5282527;28;20024;-69
2022/10/01 08:07:50;;;;;;;20.75;12.65;;;;;;;12.49;100.00;100157.09;5274812;28;20036;-69
2022/10/01 08:10:22;;;;;;;19.88;13.38;;;;;;;12.38;100.00;100162.63;5294628;28;20409;-69
2022/10/01 08:13:13;;;;;;;18.27;13.40;;;;;;;12.42;100.00;100168.53;5291119;28;20377;-69
2022/10/01 08:15:49;;;;;;;17.38;12.90;;;;;;;12.52;100.00;100164.00;5289491;28;20035;-69
2022/10/01 08:18:22;;;;;;;22.42;14.15;;;;;;;12.55;100.00;100169.91;5275439;28;20047;-69
2022/10/01 08:20:53;;;;;;;20.85;14.52;;;;;;;12.61;100.00;100176.50;5286636;28;20033;-69
2022/10/01 08:23:25;;;;;;;22.00;13.38;;;;;;;12.66;100.00;100187.59;5279011;28;20487;-68
2022/10/01 08:26:01;;;;;;;20.45;13.65;;;;;;;12.64;100.00;100184.25;5280695;28;20078;-69
2022/10/01 08:28:36;;;;;;;18.83;12.80;;;;;;;12.66;100.00;100184.09;5273679;28;20039;-68
2022/10/01 08:31:08;;;;;;;;;;;;;;;12.67;100.00;100191.94;5287062;28;20450;-69
2022/10/01 08:33:40;;;;;;;16.30;11.57;;;;;;;12.74;100.00;100193.06;5284262;28;19916;-69
2022/10/01 08:36:11;;;;;;;17.42;11.00;;;;;;;12.77;100.00;100199.09;5279198;28;20025;-69
2022/10/01 08:38:46;;;;;;;17.23;9.82;;;;;;;12.76;100.00;100203.63;5271821;28;20034;-69
2022/10/01 08:41:32;;;;;;;17.17;9.68;;;;;;;12.75;100.00;100205.47;5292408;28;20078;-69
2022/10/01 08:44:06;;;;;;;14.23;8.10;;;;;;;12.73;100.00;100207.44;5283489;28;20031;-69
2022/10/01 08:46:37;;;;;;;10.63;7.60;;;;;;;12.71;100.00;100200.53;5284962;28;20870;-69
2022/10/01 08:49:22;;;;;;;11.18;7.43;;;;;;;12.72;100.00;100204.91;5289673;28;20285;-69
2022/10/01 08:52:02;;;;;;;13.23;8.10;;;;;;;12.78;100.00;100203.47;5292855;28;20047;-69
2022/10/01 08:54:59;;;;;;;11.23;7.47;;;;;;;12.83;100.00;100215.44;5284912;28;20059;-69
2022/10/01 08:57:37;;;;;;;10.07;7.13;;;;;;;12.84;100.00;100213.59;5270029;28;20064;-68
2022/10/01 09:00:19;;;;;;;13.60;6.60;;;;;;;12.80;100.00;100214.88;5293000;28;20031;-69
2022/10/01 09:02:51;;;;;;;14.13;7.03;;;;;;;12.79;100.00;100221.22;5278158;28;20028;-69
2022/10/01 09:05:44;;;;;;;14.32;7.20;;;;;;;12.80;100.00;100223.75;5287383;28;20024;-69
2022/10/01 09:08:44;;;;;;;12.93;7.60;;;;;;;12.86;100.00;100222.31;5289070;28;20028;-69
2022/10/01 09:12:03;;;;;;;15.70;7.32;;;;;;;12.94;100.00;100230.44;5284212;28;20027;-69
2022/10/01 09:14:56;;;;;;;16.35;7.60;;;;;;;13.04;100.00;100231.28;5288335;28;20024;-69
2022/10/01 09:17:36;;;;;;;16.33;8.23;;;;;;;13.08;100.00;100232.66;5280468;28;20035;-69
2022/10/01 09:20:26;;;;;;;16.70;8.50;;;;;;;13.15;100.00;100238.25;5275404;28;20587;-69
2022/10/01 09:23:14;;;;;;;16.02;8.85;;;;;;;13.20;100.00;100241.31;5289775;28;20444;-71
2022/10/01 09:25:49;;;;;;;21.00;9.48;;;;;;;13.30;100.00;100242.13;5288710;28;20028;-69
2022/10/01 09:28:28;;;;;;;20.10;8.75;;;;;;;13.40;100.00;100242.06;5280353;28;20461;-69
2022/10/01 09:31:10;;;;;;;21.42;9.27;;;;;;;13.48;100.00;100254.72;5281344;28;20036;-69
2022/10/01 09:33:48;;;;;;;22.05;7.50;;;;;;;13.56;100.00;100251.28;5288271;28;20032;-68
2022/10/01 09:36:29;;;;;;;19.35;7.32;;;;;;;13.61;100.00;100265.09;5291845;28;20036;-69
2022/10/01 09:39:22;;;;;;;17.33;6.63;;;;;;;13.64;100.00;100264.78;5281227;28;20454;-69
2022/10/01 09:41:53;;;;;;;19.20;6.72;;;;;;;13.68;100.00;100250.09;5280996;28;20432;-70
2022/10/01 09:44:28;;;;;;;17.75;5.68;;;;;;;13.70;100.00;100261.50;5289263;28;20077;-70
2022/10/01 09:46:59;;;;;;;17.90;5.88;;;;;;;13.68;100.00;100258.97;5279209;28;20028;-69
2022/10/01 09:49:42;;;;;;;15.70;4.43;;;;;;;13.71;100.00;100252.44;5290349;28;20085;-69
2022/10/01 09:52:23;;;;;;;13.32;4.05;;;;;;;13.65;100.00;100251.25;5289459;28;20503;-70
2022/10/01 09:55:04;;;;;;;14.35;3.58;;;;;;;13.63;100.00;100253.19;5285551;28;20029;-69
2022/10/01 09:57:51;;;;;;;15.52;3.80;;;;;;;13.65;100.00;100256.59;5286600;28;20394;-69
2022/10/01 10:00:25;;;;;;;15.13;3.80;;;;;;;13.70;100.00;100256.97;5283104;28;20108;-69
2022/10/01 10:02:56;;;;;;;;;;;;;;;13.78;100.00;100264.25;5290212;28;20473;-70
2022/10/01 10:05:38;;;;;;;13.27;3.50;;;;;;;13.88;100.00;100267.72;5287911;28;19916;-69
2022/10/01 10:08:13;;;;;;;12.68;3.30;;;;;;;13.89;100.00;100274.75;5285003;28;20465;-70
2022/10/01 10:10:57;;;;;;;13.95;3.70;;;;;;;13.87;100.00;100276.75;5289786;28;20036;-70
2022/10/01 10:13:38;;;;;;;12.60;3.10;;;;;;;13.83;100.00;100283.41;5287315;28;20454;-70
2022/10/01 10:16:33;;;;;;;14.43;3.10;;;;;;;13.84;100.00;100293.13;5279774;28;20047;-69
2022/10/01 10:19:14;;;;;;;13.25;3.03;;;;;;;13.82;100.00;100292.44;5277836;28;20032;-69
2022/10/01 10:21:55;;;;;;;12.98;3.28;;;;;;;13.86;100.00;100295.66;5290657;28;20394;-69
2022/10/01 10:24:33;;;;;;;15.45;4.20;;;;;;;13.93;100.00;100304.81;5280577;28;20028;-69
2022/10/01 10:27:19;;;;;;;10.57;3.33;;;;;;;14.04;100.00;100319.84;5290703;28;20168;-70
2022/10/01 10:30:04;;;;;;;16.90;4.10;;;;;;;14.06;100.00;100307.13;5282752;28;20052;-70
2022/10/01 10:32:36;;;;;;;12.50;2.60;;;;;;;14.09;100.00;100304.97;5289184;28;20095;-70
2022/10/01 10:35:12;;;;;;;11.82;2.72;;;;;;;14.14;100.00;100314.38;5274794;28;20119;-70
2022/10/01 10:37:47;;;;;;;11.45;2.92;;;;;;;14.10;100.00;100324.59;5287246;28;20040;-70
2022/10/01 10:40:21;;;;;;;11.20;2.65;;;;;;;14.18;100.00;100324.66;5278034;28;21176;-70
2022/10/01 10:42:55;;;;;;;15.43;3.03;;;;;;;14.27;100.00;100326.41;5273398;28;20039;-71
2022/10/01 10:45:35;;;;;;;13.77;2.35;;;;;;;14.26;100.00;100327.41;5258669;28;20048;-70
2022/10/01 10:48:15;;;;;;;17.90;3.65;;;;;;;14.37;100.00;100337.06;5279849;28;20073;-69
2022/10/01 10:50:46;;;;;;;11.60;2.72;;;;;;;14.47;100.00;100342.34;5271123;28;20373;-71
2022/10/01 10:53:23;;;;;;;12.40;2.55;;;;;;;14.58;100.00;100349.34;5276098;28;20049;-70
2022/10/01 10:56:00;;;;;;;9.85;2.35;;;;;;;14.82;100.00;100371.03;5278084;28;20033;-70
2022/10/01 10:58:39;;;;;;;13.00;2.97;;;;;;;14.66;100.00;100371.72;5267916;28;20021;-69
2022/10/01 11:01:16;;;;;;;10.15;2.72;;;;;;;14.43;100.00;100365.97;5269700;28;20081;-71
2022/10/01 11:03:54;;;;;;;9.48;2.33;;;;;;;14.28;100.00;100364.81;5262379;28;20024;-70
2022/10/01 11:06:26;;;;;;;11.80;2.53;;;;;;;14.25;100.00;100373.19;5279784;28;20394;-69
2022/10/01 11:09:03;;;;;;;14.93;3.05;;;;;;;14.31;100.00;100370.72;5261406;28;20024;-71
2022/10/01 11:11:58;;;;;;;13.52;3.05;;;;;;;14.40;100.00;100382.41;5286057;28;20044;-69
2022/10/01 11:15:02;;;;;;;10.07;2.33;;;;;;;14.48;100.00;100392.38;5273115;28;20088;-69
2022/10/01 11:17:54;;;;;;;11.75;3.08;;;;;;;14.58;100.00;100395.00;5273309;28;20036;-69
2022/10/01 11:20:49;;;;;;;10.70;2.50;;;;;;;14.53;100.00;100392.72;5266709;28;20035;-69
2022/10/01 11:23:28;;;;;;;;;;;;;;;14.54;100.00;100386.38;5279999;28;20028;-69
2022/10/01 11:26:16;;;;;;;14.10;2.10;;;;;;;14.68;100.00;100404.63;5264414;28;19928;-69
2022/10/01 11:28:56;;;;;;;9.10;2.40;;;;;;;14.74;100.00;100396.97;5261303;28;20028;-69
2022/10/01 11:31:39;;;;;;;11.35;2.20;;;;;;;14.88;100.00;100404.44;5282481;28;20038;-69
2022/10/01 11:34:39;;;;;;;13.23;2.40;;;;;;;14.88;100.00;100410.69;5264685;28;20540;-69
2022/10/01 11:37:27;;;;;;;11.73;2.63;;;;;;;14.93;100.00;100418.25;5251093;28;20123;-70
2022/10/01 11:40:03;;;;;;;10.50;2.60;;;;;;;15.07;100.00;100420.41;5270547;28;21049;-70
2022/10/01 11:42:36;;;;;;;16.13;2.90;;;;;;;15.10;100.00;100421.91;5276365;28;20031;-70
2022/10/01 11:45:18;;;;;;;13.65;2.65;;;;;;;15.14;100.00;100419.75;5265952;28;20028;-70
2022/10/01 11:47:54;;;;;;;15.50;3.22;;;;;;;15.31;100.00;100420.72;5271193;28;20043;-70
2022/10/01 11:50:30;;;;;;;10.48;2.33;;;;;;;15.34;100.00;100417.69;5282546;28;20047;-70
2022/10/01 11:53:36;;;;;;;13.65;2.90;;;;;;;15.39;100.00;100428.81;5271516;28;20075;-70
2022/10/01 11:59:35;;;;;;;13.60;2.97;;;;;;;15.68;100.00;100436.53;5187789;28;20054;-70
2022/10/01 12:02:18;;;;;;;10.23;2.70;;;;;;;15.74;100.00;100432.38;5268963;28;20173;-71
2022/10/01 12:05:14;;;;;;;11.45;1.98;;;;;;;15.75;100.00;100443.00;5270285;28;20075;-71